createdAt,value
2019-04-30T00:00:25.774Z,102010.67
2019-04-30T00:03:01.303Z,102005.95
2019-04-30T00:05:30.536Z,102009.96
2019-04-30T00:07:59.703Z,102021.29
2019-04-30T00:10:36.074Z,102015.27
2019-04-30T00:13:00.087Z,102016.57
2019-04-30T00:15:29.762Z,102012.45
2019-04-30T00:18:01.857Z,102010.36
2019-04-30T00:20:34.219Z,101999.34
2019-04-30T00:23:00.753Z,102001.77
2019-04-30T00:25:29.947Z,101999.55
2019-04-30T00:28:00.390Z,101995.55
2019-04-30T00:30:30.191Z,101993.34
2019-04-30T00:32:59.367Z,101984.53
2019-04-30T00:35:28.617Z,101988.54
2019-04-30T00:38:00.210Z,101985.53
2019-04-30T00:40:30.254Z,101986.52
2019-04-30T00:43:00.101Z,101986.69
2019-04-30T00:45:30.506Z,101982.44
2019-04-30T00:47:59.724Z,101985.33
2019-04-30T00:50:29.198Z,101977.78
2019-04-30T00:52:59.985Z,101976.56
2019-04-30T00:55:29.208Z,101973.96
2019-04-30T00:57:58.678Z,101971.17
2019-04-30T01:00:29.715Z,101971.88
2019-04-30T01:03:05.900Z,101968.19
2019-04-30T01:05:35.342Z,101965.98
2019-04-30T01:08:07.114Z,101973.59
2019-04-30T01:10:36.636Z,101965.14
2019-04-30T01:13:08.196Z,101639.82
2019-04-30T01:15:39.058Z,101961.52
2019-04-30T01:18:09.361Z,101963.62
2019-04-30T01:20:40.622Z,101957.23
2019-04-30T01:23:11.395Z,101956.05
2019-04-30T01:25:43.208Z,101947.33
2019-04-30T01:28:16.491Z,101950.03
2019-04-30T01:30:43.495Z,101948.02
2019-04-30T01:33:13.079Z,101946.70
2019-04-30T01:35:42.396Z,101944.91
2019-04-30T01:38:12.818Z,101941.49
2019-04-30T01:40:47.398Z,101932.77
2019-04-30T01:43:14.779Z,101938.48
2019-04-30T01:45:44.023Z,101933.27
2019-04-30T01:48:13.328Z,101927.65
2019-04-30T01:50:42.780Z,101917.13
2019-04-30T01:53:13.337Z,101921.84
2019-04-30T01:56:00.095Z,101923.64
2019-04-30T01:58:35.423Z,101916.53
2019-04-30T02:01:09.563Z,101922.47
2019-04-30T02:03:40.033Z,101912.94
2019-04-30T02:06:11.508Z,101914.15
2019-04-30T02:08:42.464Z,101912.94
2019-04-30T02:11:11.701Z,101902.91
2019-04-30T02:13:40.946Z,101897.79
2019-04-30T02:16:10.215Z,101906.92
2019-04-30T02:18:39.564Z,101899.27
2019-04-30T02:21:08.976Z,101909.30
2019-04-30T02:23:39.784Z,101901.16
2019-04-30T02:26:09.215Z,101901.84
2019-04-30T02:28:39.356Z,101892.18
2019-04-30T02:31:09.309Z,101889.97
2019-04-30T02:33:40.613Z,101891.01
2019-04-30T02:36:40.311Z,101890.73
2019-04-30T02:39:11.114Z,101887.95
2019-04-30T02:41:41.336Z,101886.46
2019-04-30T02:44:13.160Z,101890.19
2019-04-30T02:46:44.294Z,101892.52
2019-04-30T02:49:15.350Z,101894.86
2019-04-30T02:51:46.401Z,101889.45
2019-04-30T02:54:23.673Z,101887.22
2019-04-30T02:56:59.603Z,101889.78
2019-04-30T02:59:30.081Z,101893.42
2019-04-30T03:01:59.872Z,101895.94
2019-04-30T03:04:29.535Z,101896.34
2019-04-30T03:06:59.810Z,101891.22
2019-04-30T03:09:29.822Z,101886.81
2019-04-30T03:12:00.182Z,101880.79
2019-04-30T03:14:30.208Z,101888.92
2019-04-30T03:17:16.586Z,101881.70
2019-04-30T03:20:03.510Z,101879.17
2019-04-30T03:22:31.160Z,101875.85
2019-04-30T03:25:00.400Z,101871.05
2019-04-30T03:27:30.242Z,101880.66
2019-04-30T03:30:00.246Z,101880.16
2019-04-30T03:32:35.786Z,101875.45
2019-04-30T03:35:03.092Z,101872.03
2019-04-30T03:37:31.862Z,101867.72
2019-04-30T03:40:01.078Z,101878.64
2019-04-30T03:42:30.525Z,101872.61
2019-04-30T03:44:59.820Z,101866.59
2019-04-30T03:47:30.011Z,101868.48
2019-04-30T03:49:59.981Z,101867.77
2019-04-30T03:52:29.654Z,101874.64
2019-04-30T03:55:02.471Z,101871.50
2019-04-30T03:57:30.449Z,101870.81
2019-04-30T04:00:00.542Z,101864.33
2019-04-30T04:02:40.561Z,101865.75
2019-04-30T04:05:29.892Z,101859.09
2019-04-30T04:08:04.957Z,101855.52
2019-04-30T04:10:43.016Z,101849.92
2019-04-30T04:13:12.633Z,101853.19
2019-04-30T04:15:41.876Z,101842.19
2019-04-30T04:18:11.122Z,101843.44
2019-04-30T04:20:42.797Z,101841.39
2019-04-30T04:23:12.269Z,101843.73
2019-04-30T04:25:41.589Z,101841.53
2019-04-30T04:28:10.799Z,101840.80
2019-04-30T04:30:42.936Z,101839.49
2019-04-30T04:33:10.972Z,101729.95
2019-04-30T04:35:40.179Z,101847.02
2019-04-30T04:38:12.564Z,101850.45
2019-04-30T04:40:40.878Z,101847.52
2019-04-30T04:43:10.620Z,101843.37
2019-04-30T04:45:43.693Z,101847.86
2019-04-30T04:48:11.108Z,101845.16
2019-04-30T04:50:40.315Z,101839.55
2019-04-30T04:53:12.182Z,101837.67
2019-04-30T04:55:41.415Z,101844.44
2019-04-30T04:58:12.878Z,101839.38
2019-04-30T05:00:42.307Z,101833.81
2019-04-30T05:03:25.919Z,101822.05
2019-04-30T05:05:55.221Z,101829.23
2019-04-30T05:08:24.450Z,101824.00
2019-04-30T05:10:53.768Z,101821.56
2019-04-30T05:13:23.041Z,101810.53
2019-04-30T05:15:52.279Z,101803.26
2019-04-30T05:18:22.830Z,101757.31
2019-04-30T05:20:52.194Z,101795.91
2019-04-30T05:23:21.940Z,101791.49
2019-04-30T05:25:51.455Z,101790.75
2019-04-30T05:28:20.686Z,101792.47
2019-04-30T05:30:49.906Z,101793.13
2019-04-30T05:33:19.140Z,101789.28
2019-04-30T05:35:49.578Z,101788.23
2019-04-30T05:38:19.047Z,101782.28
2019-04-30T05:40:49.564Z,101778.61
2019-04-30T05:43:19.274Z,101777.95
2019-04-30T05:45:49.201Z,101764.38
2019-04-30T05:48:18.872Z,101739.72
2019-04-30T05:50:51.427Z,101764.33
2019-04-30T05:53:19.146Z,101759.73
2019-04-30T05:55:49.398Z,101753.76
2019-04-30T05:58:19.802Z,101757.09
2019-04-30T06:00:50.085Z,101753.73
2019-04-30T06:03:28.180Z,101754.85
2019-04-30T06:05:50.709Z,101739.45
2019-04-30T06:08:22.400Z,101749.47
2019-04-30T06:11:02.203Z,101746.17
2019-04-30T06:13:43.130Z,101745.50
2019-04-30T06:16:15.459Z,101738.98
2019-04-30T06:18:44.964Z,101753.26
2019-04-30T06:21:14.306Z,101740.02
2019-04-30T06:23:43.530Z,101744.66
2019-04-30T06:26:13.656Z,101742.54
2019-04-30T06:28:43.035Z,101745.86
2019-04-30T06:31:12.363Z,101741.80
2019-04-30T06:33:41.710Z,101737.33
2019-04-30T06:36:11.876Z,101744.64
2019-04-30T06:38:41.093Z,101735.41
2019-04-30T06:41:10.308Z,101727.61
2019-04-30T06:43:39.695Z,101726.57
2019-04-30T06:46:09.009Z,101724.70
2019-04-30T06:48:41.927Z,101720.17
2019-04-30T06:51:10.870Z,101713.88
2019-04-30T06:53:40.121Z,101706.28
2019-04-30T06:56:09.357Z,101703.67
2019-04-30T06:58:38.860Z,101706.39
2019-04-30T07:01:09.861Z,101699.92
2019-04-30T07:03:39.148Z,101699.48
2019-04-30T07:06:08.492Z,101698.37
2019-04-30T07:08:59.656Z,101697.53
2019-04-30T07:11:33.086Z,101590.34
2019-04-30T07:14:02.432Z,101690.13
2019-04-30T07:16:31.762Z,101688.02
2019-04-30T07:19:01.035Z,101677.39
2019-04-30T07:21:31.726Z,101673.91
2019-04-30T07:24:01.034Z,101673.66
2019-04-30T07:26:30.477Z,101669.19
2019-04-30T07:29:02.593Z,101667.39
2019-04-30T07:31:30.927Z,101665.40
2019-04-30T07:34:00.220Z,101659.10
2019-04-30T07:36:45.818Z,101665.52
2019-04-30T07:39:00.690Z,101660.13
2019-04-30T07:41:31.303Z,101660.97
2019-04-30T07:44:00.665Z,101656.14
2019-04-30T07:46:34.748Z,101646.50
2019-04-30T07:49:01.006Z,101641.16
2019-04-30T07:51:31.938Z,101639.38
2019-04-30T07:54:01.488Z,101636.84
2019-04-30T07:56:37.207Z,101640.69
2019-04-30T07:59:02.887Z,101638.67
2019-04-30T08:01:32.856Z,101536.06
2019-04-30T08:04:11.217Z,101632.57
2019-04-30T08:06:40.731Z,101629.40
2019-04-30T08:09:10.857Z,101629.94
2019-04-30T08:11:43.418Z,101628.97
2019-04-30T08:14:11.674Z,101636.22
2019-04-30T08:16:41.226Z,101636.93
2019-04-30T08:19:10.503Z,101632.28
2019-04-30T08:21:41.093Z,101634.53
2019-04-30T08:24:10.321Z,101631.99
2019-04-30T08:26:39.885Z,101630.15
2019-04-30T08:29:09.716Z,101629.22
2019-04-30T08:31:40.930Z,101629.48
2019-04-30T08:34:10.977Z,101629.78
2019-04-30T08:36:40.778Z,101619.00
2019-04-30T08:39:09.996Z,101616.70
2019-04-30T08:41:39.369Z,101611.88
2019-04-30T08:44:09.402Z,101611.81
2019-04-30T08:46:38.793Z,101612.25
2019-04-30T08:49:09.651Z,101605.97
2019-04-30T08:51:39.774Z,101603.66
2019-04-30T08:54:09.660Z,101497.52
2019-04-30T08:56:39.013Z,101592.97
2019-04-30T08:59:10.851Z,101593.16
2019-04-30T09:01:39.482Z,101584.08
2019-04-30T09:04:10.495Z,101587.16
2019-04-30T09:06:40.189Z,101583.92
2019-04-30T09:09:16.351Z,101589.22
2019-04-30T09:11:52.916Z,101590.07
2019-04-30T09:14:18.548Z,101587.02
2019-04-30T09:16:49.487Z,101584.80
2019-04-30T09:19:20.982Z,101586.56
2019-04-30T09:21:49.981Z,101579.32
2019-04-30T09:24:19.343Z,101582.93
2019-04-30T09:26:49.284Z,101588.44
2019-04-30T09:29:19.173Z,101585.01
2019-04-30T09:31:49.350Z,101582.34
2019-04-30T09:34:21.027Z,101575.05
2019-04-30T09:36:49.983Z,101569.16
2019-04-30T09:39:19.895Z,101569.58
2019-04-30T09:41:50.206Z,101565.26
2019-04-30T09:44:20.333Z,101561.50
2019-04-30T09:46:50.689Z,101562.43
2019-04-30T09:49:20.168Z,101566.25
2019-04-30T09:51:50.246Z,101564.48
2019-04-30T09:54:20.543Z,101556.81
2019-04-30T09:56:52.685Z,101549.81
2019-04-30T09:59:21.274Z,101551.55
2019-04-30T10:01:50.542Z,101543.73
2019-04-30T10:04:20.873Z,101544.05
2019-04-30T10:06:50.445Z,101535.98
2019-04-30T10:09:19.717Z,101529.06
2019-04-30T10:12:09.697Z,101526.38
2019-04-30T10:14:40.964Z,101523.23
2019-04-30T10:17:32.588Z,101518.91
2019-04-30T10:20:02.177Z,101520.80
2019-04-30T10:22:31.447Z,101513.53
2019-04-30T10:25:01.064Z,101510.55
2019-04-30T10:27:30.382Z,101505.95
2019-04-30T10:30:00.109Z,101506.45
2019-04-30T10:32:30.100Z,101492.02
2019-04-30T10:35:00.575Z,101476.89
2019-04-30T10:37:29.893Z,101471.64
2019-04-30T10:40:00.741Z,101475.39
2019-04-30T10:42:30.030Z,101466.08
2019-04-30T10:45:00.251Z,101472.16
2019-04-30T10:47:32.458Z,101463.07
2019-04-30T10:50:01.640Z,101453.02
2019-04-30T10:52:31.032Z,101443.50
2019-04-30T10:55:00.605Z,101440.92
2019-04-30T10:57:29.871Z,101434.51
2019-04-30T11:00:00.064Z,101441.96
2019-04-30T11:02:31.195Z,101457.34
2019-04-30T11:05:00.273Z,101463.17
2019-04-30T11:07:29.697Z,101463.98
2019-04-30T11:09:59.008Z,101480.05
2019-04-30T11:12:29.212Z,101489.95
2019-04-30T11:14:58.823Z,101493.86
2019-04-30T11:17:30.055Z,101500.41
2019-04-30T11:19:59.397Z,101505.13
2019-04-30T11:22:29.176Z,101507.69
2019-04-30T11:25:02.458Z,101513.61
2019-04-30T11:27:30.935Z,101519.86
2019-04-30T11:30:03.717Z,101516.56
2019-04-30T11:32:31.810Z,101518.98
2019-04-30T11:35:01.209Z,101528.70
2019-04-30T11:37:30.613Z,101539.77
2019-04-30T11:39:59.935Z,101545.90
2019-04-30T11:42:32.217Z,101540.35
2019-04-30T11:45:01.004Z,101545.34
2019-04-30T11:47:33.425Z,101541.11
2019-04-30T11:50:03.965Z,101538.37
2019-04-30T11:52:33.328Z,101539.60
2019-04-30T11:55:02.651Z,101546.13
2019-04-30T11:57:31.905Z,101546.98
2019-04-30T12:00:01.156Z,101555.02
2019-04-30T12:02:40.741Z,101556.38
2019-04-30T12:05:13.793Z,101555.86
2019-04-30T12:08:05.330Z,101558.11
2019-04-30T12:10:59.590Z,101555.95
2019-04-30T12:13:38.269Z,101553.60
2019-04-30T12:16:08.686Z,101551.77
2019-04-30T12:18:38.020Z,101556.89
2019-04-30T12:21:07.392Z,101554.77
2019-04-30T12:23:36.650Z,101553.67
2019-04-30T12:26:05.873Z,101547.25
2019-04-30T12:28:35.469Z,101549.30
2019-04-30T12:31:05.950Z,101554.52
2019-04-30T12:33:35.370Z,101546.95
2019-04-30T12:36:06.356Z,101543.28
2019-04-30T12:38:36.210Z,101532.27
2019-04-30T12:41:05.693Z,101532.06
2019-04-30T12:43:35.253Z,101532.11
2019-04-30T12:46:05.668Z,101531.94
2019-04-30T12:49:00.068Z,101534.69
2019-04-30T12:51:45.554Z,101542.20
2019-04-30T12:54:14.952Z,101541.38
2019-04-30T12:57:01.843Z,101535.41
2019-04-30T12:59:31.373Z,101538.34
2019-04-30T13:02:00.599Z,101535.33
2019-04-30T13:04:29.833Z,101531.14
2019-04-30T13:07:02.171Z,101522.33
2019-04-30T13:09:31.127Z,101518.48
2019-04-30T13:12:01.937Z,101521.38
2019-04-30T13:14:32.470Z,101526.84
2019-04-30T13:17:02.372Z,101411.19
2019-04-30T13:19:31.599Z,101515.30
2019-04-30T13:22:00.847Z,101515.54
2019-04-30T13:24:31.431Z,101517.70
2019-04-30T13:27:00.777Z,101515.98
2019-04-30T13:29:47.949Z,101524.91
2019-04-30T13:32:27.891Z,101527.00
2019-04-30T13:34:52.809Z,101523.34
2019-04-30T13:37:22.033Z,101513.03
2019-04-30T13:40:01.248Z,101514.51
2019-04-30T13:42:34.308Z,101513.42
2019-04-30T13:45:03.827Z,101504.39
2019-04-30T13:47:33.151Z,101507.03
2019-04-30T13:50:02.379Z,101498.98
2019-04-30T13:52:31.921Z,101488.00
2019-04-30T13:55:01.225Z,101489.75
2019-04-30T13:57:30.414Z,101491.61
2019-04-30T13:59:59.745Z,101486.52
2019-04-30T14:02:32.375Z,101485.08
2019-04-30T14:05:15.951Z,101480.30
2019-04-30T14:07:54.956Z,101473.95
2019-04-30T14:10:24.515Z,101465.49
2019-04-30T14:12:57.868Z,101467.36
2019-04-30T14:15:29.157Z,101469.83
2019-04-30T14:17:59.722Z,101473.13
2019-04-30T14:20:29.758Z,101461.78
2019-04-30T14:22:58.982Z,101458.16
2019-04-30T14:25:28.398Z,101457.29
2019-04-30T14:27:59.257Z,101440.19
2019-04-30T14:30:29.315Z,101427.69
2019-04-30T14:32:59.364Z,101428.52
2019-04-30T14:35:28.784Z,101424.57
2019-04-30T14:37:59.629Z,101414.34
2019-04-30T14:40:30.489Z,101419.09
2019-04-30T14:43:08.870Z,101410.86
2019-04-30T14:45:55.840Z,101408.19
2019-04-30T14:48:32.078Z,101402.87
2019-04-30T14:51:01.969Z,101391.06
2019-04-30T14:53:49.001Z,101391.31
2019-04-30T14:56:40.855Z,101395.08
2019-04-30T14:59:35.172Z,101377.42
2019-04-30T15:02:13.864Z,101385.67
2019-04-30T15:04:43.131Z,101375.64
2019-04-30T15:07:12.363Z,101377.62
2019-04-30T15:09:41.869Z,101369.02
2019-04-30T15:12:11.236Z,101370.50
2019-04-30T15:14:41.026Z,101366.66
2019-04-30T15:17:10.685Z,101365.16
2019-04-30T15:19:40.350Z,101351.91
2019-04-30T15:22:09.586Z,101351.42
2019-04-30T15:24:39.514Z,101349.34
2019-04-30T15:27:09.367Z,101350.75
2019-04-30T15:29:39.318Z,101359.76
2019-04-30T15:32:08.878Z,101346.02
2019-04-30T15:34:40.874Z,101347.35
2019-04-30T15:37:19.245Z,101346.44
2019-04-30T15:39:42.080Z,101340.12
2019-04-30T15:42:12.999Z,101342.68
2019-04-30T15:44:45.275Z,101345.28
2019-04-30T15:47:13.548Z,101339.13
2019-04-30T15:49:42.845Z,101332.04
2019-04-30T15:52:12.142Z,101341.39
2019-04-30T15:54:41.556Z,101331.55
2019-04-30T15:57:10.775Z,101332.75
2019-04-30T15:59:44.058Z,101336.63
2019-04-30T16:02:56.362Z,101327.52
2019-04-30T16:05:43.238Z,101330.72
2019-04-30T16:08:35.528Z,101320.45
2019-04-30T16:11:20.567Z,101311.94
2019-04-30T16:14:18.617Z,101314.35
2019-04-30T16:16:58.291Z,101318.06
2019-04-30T16:19:28.796Z,101312.67
2019-04-30T16:21:58.064Z,101306.97
2019-04-30T16:24:28.731Z,101303.98
2019-04-30T16:26:59.336Z,101299.13
2019-04-30T16:29:28.980Z,101296.88
2019-04-30T16:31:59.220Z,101297.22
2019-04-30T16:34:30.345Z,101302.05
2019-04-30T16:36:59.853Z,101291.50
2019-04-30T16:39:29.063Z,101298.19
2019-04-30T16:41:59.259Z,101290.23
2019-04-30T16:44:28.788Z,101296.02
2019-04-30T16:46:59.665Z,101286.27
2019-04-30T16:49:29.342Z,101278.28
2019-04-30T16:52:01.182Z,101271.64
2019-04-30T16:54:29.500Z,101266.77
2019-04-30T16:57:04.233Z,101264.11
2019-04-30T16:59:38.931Z,101266.78
2019-04-30T17:02:09.541Z,101266.31
2019-04-30T17:04:57.736Z,101255.64
2019-04-30T17:07:32.960Z,101254.72
2019-04-30T17:10:14.088Z,101254.67
2019-04-30T17:12:53.396Z,101251.96
2019-04-30T17:15:25.221Z,101247.37
2019-04-30T17:17:54.538Z,101250.35
2019-04-30T17:20:23.802Z,101255.88
2019-04-30T17:22:53.122Z,101247.98
2019-04-30T17:25:22.423Z,101250.41
2019-04-30T17:27:51.687Z,101251.94
2019-04-30T17:30:21.300Z,101248.89
2019-04-30T17:32:50.676Z,101244.97
2019-04-30T17:35:19.982Z,101243.34
2019-04-30T17:37:49.671Z,101237.91
2019-04-30T17:40:19.367Z,101237.91
2019-04-30T17:42:48.862Z,101239.12
2019-04-30T17:45:19.513Z,101233.73
2019-04-30T17:47:49.067Z,101233.84
2019-04-30T17:50:18.925Z,101242.75
2019-04-30T17:52:48.169Z,101235.72
2019-04-30T17:55:19.452Z,101239.09
2019-04-30T17:57:48.828Z,101240.07
2019-04-30T18:00:22.276Z,101238.13
2019-04-30T18:02:50.664Z,101238.36
2019-04-30T18:05:20.028Z,101237.27
2019-04-30T18:07:49.887Z,101244.78
2019-04-30T18:10:21.300Z,101234.13
2019-04-30T18:12:50.860Z,101236.56
2019-04-30T18:15:23.297Z,101113.53
2019-04-30T18:18:09.994Z,101228.77
2019-04-30T18:20:50.665Z,101224.06
2019-04-30T18:23:38.864Z,101234.33
2019-04-30T18:26:11.394Z,101230.45
2019-04-30T18:28:40.709Z,101225.54
2019-04-30T18:31:10.070Z,101231.89
2019-04-30T18:33:40.793Z,101226.87
2019-04-30T18:36:10.025Z,101222.67
2019-04-30T18:38:39.563Z,101226.91
2019-04-30T18:41:09.523Z,101219.83
2019-04-30T18:43:40.509Z,101219.13
2019-04-30T18:46:10.769Z,101212.76
2019-04-30T18:48:40.327Z,101212.61
2019-04-30T18:51:29.824Z,101209.76
2019-04-30T18:53:41.312Z,101214.40
2019-04-30T18:56:14.615Z,101212.98
2019-04-30T18:58:43.151Z,101213.27
2019-04-30T19:01:12.911Z,101207.92
2019-04-30T19:03:42.145Z,101208.89
2019-04-30T19:06:23.115Z,101209.64
2019-04-30T19:08:58.454Z,101207.77
2019-04-30T19:11:50.162Z,101205.78
2019-04-30T19:14:49.207Z,101206.84
2019-04-30T19:17:39.517Z,101198.84
2019-04-30T19:20:28.681Z,101193.55
2019-04-30T19:22:58.204Z,101198.27
2019-04-30T19:25:28.905Z,101195.34
2019-04-30T19:28:09.587Z,101196.07
2019-04-30T19:30:32.481Z,101194.77
2019-04-30T19:33:00.849Z,101194.13
2019-04-30T19:35:30.211Z,101192.23
2019-04-30T19:37:59.437Z,101186.30
2019-04-30T19:40:28.714Z,101191.97
2019-04-30T19:42:58.074Z,101197.16
2019-04-30T19:45:27.280Z,101192.53
2019-04-30T19:47:58.590Z,101192.29
2019-04-30T19:50:27.566Z,101185.05
2019-04-30T19:52:58.643Z,101185.41
2019-04-30T19:55:28.624Z,101178.39
2019-04-30T19:57:59.864Z,101183.10
2019-04-30T20:00:30.972Z,101178.64
2019-04-30T20:03:00.241Z,101171.09
2019-04-30T20:05:29.585Z,101177.17
2019-04-30T20:07:59.279Z,101166.53
2019-04-30T20:10:28.838Z,101161.44
2019-04-30T20:12:58.800Z,101166.45
2019-04-30T20:15:29.845Z,101165.39
2019-04-30T20:18:01.001Z,101162.86
2019-04-30T20:20:30.452Z,101160.38
2019-04-30T20:22:59.667Z,101156.33
2019-04-30T20:25:28.889Z,101153.91
2019-04-30T20:27:58.274Z,101151.53
2019-04-30T20:30:29.224Z,101148.63
2019-04-30T20:32:59.461Z,101151.42
2019-04-30T20:35:28.880Z,101141.20
2019-04-30T20:38:21.787Z,101145.42
2019-04-30T20:41:00.144Z,101146.38
2019-04-30T20:43:22.927Z,101141.14
2019-04-30T20:45:52.165Z,101142.63
2019-04-30T20:48:22.007Z,101149.16
2019-04-30T20:50:51.232Z,101141.13
2019-04-30T20:53:20.433Z,101140.11
2019-04-30T20:55:49.907Z,101140.75
2019-04-30T20:58:19.115Z,101144.78
2019-04-30T21:01:00.490Z,101144.18
2019-04-30T21:03:19.697Z,101141.25
2019-04-30T21:05:49.156Z,101136.06
2019-04-30T21:08:18.459Z,101124.02
2019-04-30T21:10:49.423Z,101122.73
2019-04-30T21:13:19.382Z,101116.78
2019-04-30T21:15:49.581Z,101121.87
2019-04-30T21:18:19.637Z,101117.00
2019-04-30T21:20:49.657Z,101114.73
2019-04-30T21:23:19.548Z,101113.45
2019-04-30T21:25:49.287Z,101113.47
2019-04-30T21:28:19.678Z,101111.80
2019-04-30T21:30:49.102Z,101112.42
2019-04-30T21:33:38.483Z,101109.14
2019-04-30T21:36:11.704Z,101110.52
2019-04-30T21:38:41.077Z,101106.27
2019-04-30T21:41:10.286Z,101100.77
2019-04-30T21:43:39.495Z,101098.23
2019-04-30T21:46:09.586Z,101101.19
2019-04-30T21:48:39.109Z,101094.66
2019-04-30T21:51:09.374Z,101087.11
2019-04-30T21:53:39.611Z,101083.55
2019-04-30T21:56:09.076Z,101084.37
2019-04-30T21:58:39.282Z,101080.39
2019-04-30T22:01:27.379Z,101072.91
2019-04-30T22:03:56.651Z,101070.30
2019-04-30T22:06:25.927Z,101075.03
2019-04-30T22:08:55.266Z,101068.31
2019-04-30T22:11:24.504Z,101063.23
2019-04-30T22:13:53.725Z,101062.33
2019-04-30T22:16:23.088Z,101063.70
2019-04-30T22:18:52.432Z,101066.66
2019-04-30T22:21:21.633Z,101056.50
2019-04-30T22:23:51.051Z,101054.16
2019-04-30T22:26:20.251Z,101055.67
2019-04-30T22:28:49.606Z,101045.04
2019-04-30T22:31:19.877Z,101039.27
2019-04-30T22:33:49.229Z,101044.08
2019-04-30T22:36:32.561Z,101036.73
2019-04-30T22:39:26.809Z,101034.88
2019-04-30T22:42:20.220Z,101024.31
2019-04-30T22:44:49.455Z,101031.66
2019-04-30T22:47:18.664Z,101028.09
2019-04-30T22:49:48.144Z,101016.42
2019-04-30T22:52:17.408Z,101008.47
2019-04-30T22:54:46.607Z,101011.89
2019-04-30T22:57:15.967Z,101005.72
2019-04-30T22:59:50.007Z,100999.47
2019-04-30T23:02:35.505Z,100994.61
2019-04-30T23:05:07.259Z,100991.17
2019-04-30T23:07:36.600Z,100980.61
2019-04-30T23:10:08.011Z,100980.47
2019-04-30T23:12:37.609Z,100981.70
2019-04-30T23:15:07.748Z,100981.09
2019-04-30T23:17:37.106Z,100985.47
2019-04-30T23:20:07.414Z,100979.42
2019-04-30T23:22:36.660Z,100968.59
2019-04-30T23:25:06.371Z,100963.94
2019-04-30T23:27:35.703Z,100954.41
2019-04-30T23:30:05.293Z,100954.06
2019-04-30T23:32:34.633Z,100957.97
2019-04-30T23:35:04.019Z,100948.30
2019-04-30T23:37:33.192Z,100936.09
2019-04-30T23:40:24.895Z,100930.82
2019-04-30T23:42:54.321Z,100930.27
2019-04-30T23:45:23.863Z,100920.60
2019-04-30T23:47:53.829Z,100918.34
2019-04-30T23:50:23.047Z,100918.67
2019-04-30T23:52:52.255Z,100913.40
2019-04-30T23:55:21.701Z,100911.13
2019-04-30T23:57:50.918Z,100907.70
